METAR LOCAUX

2019/10/21 11:00 LFST 211100Z AUTO 18005KT 130V200 9999 -RA FEW047/// OVC086/// ///TCU 15/14 Q1020 BECMG FEW010 OVC080
2019/10/21 10:50 EDSB 211050Z 23008KT 200V260 9999 -RA FEW032 OVC071 16/12 Q1020
2019/10/21 11:00 LFGA 211100Z AUTO 18008KT CAVOK 14/13 Q1021
www.noaa.gov

Ne pas utiliser pour préparer ou effectuer un vol: Utilisez la documentation officielle disponible sur aviation.meteo.fr (Aéroweb)


"Le soleil du matin ne dure pas forcément toute la journée."

Animation satellite IR

Meteociel.fr

"Derrière chaque nuage se cache le ciel bleu."

Radar pluie

Infoclimat.fr

"Si tu veux l’arc-en-ciel, tu dois supporter la pluie."
Dolly Parton

Nébulosité (octas)

Meteociel.fr

"Le soleil est souvent obscurci par les nuages et la raison par les passions."
Démophile

Impacts de foudre

www.meteo60.fr

"Celui que frappe la foudre n'entend pas le tonnerre."

Vigilance météo

vigilance-meteo.fr

"Tout nuage n'enfante pas une tempête."
William Shakespeare

TAF locaux

2019/10/21 06:21 TAF LFST 210500Z 2106/2206 19005KT 9999 FEW010 BKN100 TEMPO 2106/2112 -RA BKN003 PROB30 TEMPO 2106/2110 4000 BR BECMG 2118/2122 VRB03KT TEMPO 2116/2203 4000 -RADZ BR BKN003 BKN050 TEMPO 2203/2206 4000 BR BKN003
2019/10/21 06:27 TAF EDSB 210500Z 2106/2206 VRB03KT 9999 SCT040 BECMG 2106/2109 21007KT BECMG 2115/2118 VRB03KT TEMPO 2117/2122 4000 RA BKN014 TEMPO 2200/2206 2000 BCFG
www.noaa.gov

Ne pas utiliser pour préparer ou effectuer un vol: Utilisez la documentation officielle disponible sur aviation.meteo.fr (Aéroweb)


"Les jours où le ciel est gris, le soleil n'a pas disparu à tout jamais."
Arnaud Desjardins

Prévisions 7 jours


Meteoblue.com

"Quand les crapauds chantent, le beau temps s'avance !"